Time;durP1;ratioP1;P1;durP2;ratioP2;P2;SDS_P1;SDS_P2;PMS_P1;PMS_P2;Temp;Humidity;BMP_temperature;BMP_pressure;BME280_temperature;BME280_humidity;BME280_pressure;Samples;Min_cycle;Max_cycle;Signal;HPM_P1;HPM_P2
2021/03/11 00:01:24;;;;;;;33.08;16.83;;;9.00;96.40;;;;;;4806670;29;20175;-77
2021/03/11 00:03:49;;;;;;;32.63;15.68;;;9.00;96.40;;;;;;4806629;29;20095;-79
2021/03/11 00:06:15;;;;;;;36.45;17.02;;;9.00;96.50;;;;;;4806734;29;20035;-78
2021/03/11 00:08:41;;;;;;;31.25;15.75;;;8.90;96.70;;;;;;4824258;29;20099;-78
2021/03/11 00:11:07;;;;;;;34.45;16.10;;;8.80;96.80;;;;;;4822677;29;20103;-78
2021/03/11 00:13:33;;;;;;;33.47;15.77;;;8.80;97.20;;;;;;4822572;29;20050;-79
2021/03/11 00:15:58;;;;;;;29.60;15.48;;;8.80;97.00;;;;;;4822649;29;20131;-79
2021/03/11 00:18:24;;;;;;;30.60;15.43;;;8.70;97.10;;;;;;4822720;29;20546;-78
2021/03/11 00:20:50;;;;;;;32.28;15.45;;;8.70;97.20;;;;;;4824143;29;20338;-78
2021/03/11 00:23:15;;;;;;;35.13;16.27;;;8.70;97.30;;;;;;4822439;29;20425;-77
2021/03/11 00:25:41;;;;;;;30.23;14.82;;;8.70;97.30;;;;;;4822464;29;20042;-78
2021/03/11 00:28:07;;;;;;;32.67;16.58;;;8.70;97.50;;;;;;4822458;29;20046;-78
2021/03/11 00:30:33;;;;;;;36.25;17.08;;;8.60;97.70;;;;;;4822567;29;20330;-75
2021/03/11 00:32:59;;;;;;;32.08;16.55;;;8.60;97.70;;;;;;4807719;29;20057;-77
2021/03/11 00:35:25;;;;;;;32.63;16.75;;;8.60;97.80;;;;;;4818187;29;20470;-77
2021/03/11 00:37:51;;;;;;;33.72;16.13;;;8.50;97.90;;;;;;4822522;29;20057;-77
2021/03/11 00:40:20;;;;;;;30.25;15.73;;;8.50;98.10;;;;;;4822814;29;20054;-76
2021/03/11 00:42:45;;;;;;;31.50;15.70;;;8.40;98.20;;;;;;4806012;29;20034;-78
2021/03/11 00:45:12;;;;;;;35.53;16.80;;;8.40;98.40;;;;;;4805725;29;20121;-77
2021/03/11 00:47:39;;;;;;;33.03;15.82;;;8.40;98.50;;;;;;4807616;29;20482;-77
2021/03/11 00:50:17;;;;;;;31.00;15.52;;;8.30;98.50;;;;;;4805750;29;20614;-78
2021/03/11 00:52:43;;;;;;;31.63;15.40;;;8.30;98.70;;;;;;4822284;29;20054;-78
2021/03/11 00:55:10;;;;;;;33.97;16.58;;;8.30;98.80;;;;;;4806075;29;20052;-79
2021/03/11 00:57:36;;;;;;;31.75;15.70;;;8.20;98.90;;;;;;4822448;29;20030;-78
2021/03/11 01:00:06;;;;;;;30.83;16.33;;;8.30;99.10;;;;;;4823367;29;20045;-78
2021/03/11 01:02:32;;;;;;;33.22;16.33;;;8.20;99.10;;;;;;4806098;29;20472;-78
2021/03/11 01:04:58;;;;;;;33.03;15.93;;;8.20;99.30;;;;;;4821919;29;20057;-78
2021/03/11 01:07:23;;;;;;;31.20;14.75;;;8.20;99.30;;;;;;4821985;29;20122;-78
2021/03/11 01:09:49;;;;;;;31.85;16.23;;;8.20;99.30;;;;;;4805659;29;20099;-77
2021/03/11 01:12:15;;;;;;;31.92;15.77;;;8.20;99.30;;;;;;4821772;29;20043;-77
2021/03/11 01:14:42;;;;;;;31.63;16.38;;;8.20;99.30;;;;;;4823579;29;20357;-77
2021/03/11 01:17:08;;;;;;;28.73;15.07;;;8.10;99.30;;;;;;4821605;29;20133;-76
2021/03/11 01:19:33;;;;;;;32.78;16.20;;;8.10;99.50;;;;;;4805128;29;20288;-77
2021/03/11 01:21:59;;;;;;;27.85;14.73;;;8.10;99.40;;;;;;4805324;29;20046;-77
2021/03/11 01:24:24;;;;;;;30.48;15.60;;;8.10;99.40;;;;;;4821569;29;20045;-78
2021/03/11 01:26:50;;;;;;;26.60;14.55;;;8.20;99.50;;;;;;4823381;29;20668;-76
2021/03/11 01:29:16;;;;;;;28.65;14.30;;;8.10;99.50;;;;;;4821620;29;20030;-76
2021/03/11 01:31:41;;;;;;;32.47;15.77;;;8.10;99.50;;;;;;4821471;29;20034;-77
2021/03/11 01:34:07;;;;;;;29.38;14.75;;;8.00;99.60;;;;;;4821308;29;20047;-76
2021/03/11 01:36:33;;;;;;;29.80;15.77;;;8.00;99.50;;;;;;4821220;29;20497;-77
2021/03/11 01:38:59;;;;;;;26.58;14.32;;;8.00;99.60;;;;;;4806771;29;20046;-76
2021/03/11 01:41:25;;;;;;;26.75;14.02;;;8.00;99.60;;;;;;4805433;29;20054;-77
2021/03/11 01:43:54;;;;;;;29.23;13.77;;;8.10;99.40;;;;;;4820929;29;20145;-78
2021/03/11 01:46:22;;;;;;;29.08;14.00;;;8.10;99.30;;;;;;4821289;29;20532;-78
2021/03/11 01:48:47;;;;;;;27.65;14.23;;;8.00;99.40;;;;;;4821176;29;20418;-78
2021/03/11 01:51:13;;;;;;;27.30;14.25;;;8.00;99.30;;;;;;4821255;29;20046;-79
2021/03/11 01:53:39;;;;;;;29.20;13.45;;;8.00;99.20;;;;;;4806545;29;20087;-78
2021/03/11 01:56:05;;;;;;;27.23;14.32;;;8.00;99.30;;;;;;4821282;29;20038;-77
2021/03/11 01:58:31;;;;;;;27.13;14.40;;;8.00;99.20;;;;;;4818647;29;20039;-77
2021/03/11 02:00:56;;;;;;;30.73;14.63;;;8.00;99.20;;;;;;4804458;29;20516;-76
2021/03/11 02:03:22;;;;;;;26.00;14.43;;;8.00;99.30;;;;;;4820582;29;20035;-76
2021/03/11 02:05:48;;;;;;;25.83;13.35;;;8.00;99.20;;;;;;4822792;29;20374;-77
2021/03/11 02:08:14;;;;;;;26.20;14.20;;;8.00;99.00;;;;;;4821077;29;20050;-77
2021/03/11 02:10:40;;;;;;;27.40;14.52;;;8.10;99.10;;;;;;4804612;29;20045;-77
2021/03/11 02:13:20;;;;;;;29.80;13.55;;;8.00;98.90;;;;;;4820885;29;20042;-77
2021/03/11 02:16:00;;;;;;;29.60;13.90;;;8.10;99.00;;;;;;4803861;29;20538;-78
2021/03/11 02:18:47;;;;;;;26.92;13.77;;;8.10;98.90;;;;;;4821076;29;20066;-78
2021/03/11 02:21:20;;;;;;;34.47;13.40;;;8.10;98.80;;;;;;4804789;29;20104;-77
2021/03/11 02:24:11;;;;;;;26.70;13.45;;;8.10;98.90;;;;;;4806019;29;20034;-78
2021/03/11 02:26:54;;;;;;;22.13;12.82;;;8.10;98.80;;;;;;4821259;29;20097;-76
2021/03/11 02:29:28;;;;;;;25.73;12.98;;;8.10;98.60;;;;;;4804312;29;20080;-76
2021/03/11 02:31:57;;;;;;;26.30;13.88;;;8.10;98.70;;;;;;4804495;29;20038;-76
2021/03/11 02:34:25;;;;;;;24.27;13.55;;;8.20;98.60;;;;;;4820539;29;20099;-77
2021/03/11 02:37:03;;;;;;;23.77;13.27;;;8.30;98.50;;;;;;4818784;29;20077;-78
2021/03/11 02:39:30;;;;;;;26.90;13.98;;;8.20;98.40;;;;;;4820681;29;20093;-78
2021/03/11 02:41:58;;;;;;;24.92;13.15;;;8.20;98.40;;;;;;4822168;29;20090;-77
2021/03/11 02:44:25;;;;;;;26.23;13.02;;;8.30;98.30;;;;;;4804359;29;20046;-77
2021/03/11 02:46:52;;;;;;;25.52;13.48;;;8.30;98.40;;;;;;4820464;29;20046;-77
2021/03/11 02:49:20;;;;;;;28.00;13.05;;;8.30;98.30;;;;;;4820527;29;20149;-78
2021/03/11 02:51:47;;;;;;;25.13;12.63;;;8.30;98.30;;;;;;4820499;29;20388;-78
2021/03/11 02:54:13;;;;;;;23.90;12.88;;;8.40;98.30;;;;;;4805234;29;20038;-77
2021/03/11 02:56:40;;;;;;;25.95;13.27;;;8.40;98.10;;;;;;4825817;29;20026;-77
2021/03/11 02:59:07;;;;;;;23.65;13.55;;;8.40;98.10;;;;;;4823972;29;20106;-77
2021/03/11 03:01:34;;;;;;;23.15;13.05;;;8.40;98.20;;;;;;4808041;29;20046;-77
2021/03/11 03:04:01;;;;;;;25.67;13.23;;;8.40;98.00;;;;;;4804463;29;20082;-76
2021/03/11 03:06:28;;;;;;;25.70;13.20;;;8.40;98.00;;;;;;4804928;29;27101;-77
2021/03/11 03:08:54;;;;;;;23.08;12.45;;;8.50;98.20;;;;;;4806280;29;20107;-76
2021/03/11 03:11:21;;;;;;;29.13;13.60;;;8.50;98.10;;;;;;4805678;29;20466;-77
2021/03/11 03:13:48;;;;;;;26.27;13.77;;;8.50;98.20;;;;;;4805766;29;20035;-75
2021/03/11 03:16:15;;;;;;;27.88;13.27;;;8.50;98.40;;;;;;4805520;29;20057;-77
2021/03/11 03:18:41;;;;;;;26.92;14.35;;;8.50;98.40;;;;;;4805524;29;20046;-76
2021/03/11 03:21:11;;;;;;;27.08;14.07;;;8.50;98.60;;;;;;4805759;29;20031;-77
2021/03/11 03:23:39;;;;;;;25.42;13.50;;;8.50;98.50;;;;;;4807009;29;20039;-76
2021/03/11 03:26:05;;;;;;;27.15;13.73;;;8.60;98.50;;;;;;4805649;29;20125;-76
2021/03/11 03:28:31;;;;;;;27.25;13.75;;;8.50;98.60;;;;;;4805584;29;20121;-76
2021/03/11 03:30:58;;;;;;;28.33;13.82;;;8.60;98.70;;;;;;4805867;29;20069;-76
2021/03/11 03:33:24;;;;;;;28.15;14.75;;;8.50;98.70;;;;;;4805017;29;20030;-77
2021/03/11 03:35:50;;;;;;;32.40;13.98;;;8.50;98.70;;;;;;4806802;29;20096;-77
2021/03/11 03:38:16;;;;;;;29.98;13.95;;;8.60;98.70;;;;;;4804054;29;20122;-75
2021/03/11 03:40:42;;;;;;;23.52;13.70;;;8.60;98.60;;;;;;4805338;29;20130;-78
2021/03/11 03:43:20;;;;;;;25.38;13.60;;;8.60;98.70;;;;;;4805446;29;20428;-77
2021/03/11 03:45:53;;;;;;;;;;;8.60;98.60;;;;;;4805775;29;20055;-78
2021/03/11 03:48:26;;;;;;;25.20;13.20;;;8.70;98.60;;;;;;4805234;29;19918;-77
2021/03/11 03:50:53;;;;;;;25.98;13.02;;;8.70;98.50;;;;;;4806736;29;20458;-77
2021/03/11 03:53:22;;;;;;;24.38;12.73;;;8.70;98.40;;;;;;4805065;29;20039;-77
2021/03/11 03:55:54;;;;;;;22.75;12.23;;;8.70;98.40;;;;;;4805050;29;20051;-77
2021/03/11 03:58:21;;;;;;;24.10;13.15;;;8.70;98.40;;;;;;4805002;29;20043;-77
2021/03/11 04:00:47;;;;;;;26.08;12.40;;;8.70;98.40;;;;;;4804999;29;20142;-76
2021/03/11 04:03:14;;;;;;;28.80;12.43;;;8.70;98.40;;;;;;4804776;29;20027;-78
2021/03/11 04:05:40;;;;;;;24.20;12.52;;;8.70;98.30;;;;;;4805710;29;20133;-76
2021/03/11 04:08:07;;;;;;;27.10;12.88;;;8.70;98.30;;;;;;4804571;29;20562;-76
2021/03/11 04:10:33;;;;;;;25.20;12.77;;;8.80;98.40;;;;;;4804387;29;20039;-77
2021/03/11 04:12:59;;;;;;;24.35;11.65;;;8.70;98.20;;;;;;4803636;29;20125;-77
2021/03/11 04:15:25;;;;;;;24.58;12.35;;;8.70;98.20;;;;;;4803677;29;20037;-75
2021/03/11 04:17:52;;;;;;;23.02;11.55;;;8.80;98.30;;;;;;4806010;29;20370;-76
2021/03/11 04:20:18;;;;;;;24.45;11.95;;;8.80;98.10;;;;;;4804769;29;20126;-76
2021/03/11 04:22:44;;;;;;;25.08;12.30;;;8.80;98.10;;;;;;4803227;29;20047;-78
2021/03/11 04:25:10;;;;;;;22.45;12.80;;;8.90;98.20;;;;;;4803391;29;20104;-75
2021/03/11 04:27:37;;;;;;;23.33;10.88;;;8.90;98.10;;;;;;4804420;29;20035;-76
2021/03/11 04:30:05;;;;;;;20.50;11.25;;;8.90;98.10;;;;;;4805918;29;20065;-77
2021/03/11 04:32:32;;;;;;;;;;;8.90;98.00;;;;;;4804733;29;20104;-77
2021/03/11 04:34:57;;;;;;;22.60;11.60;;;8.90;98.00;;;;;;4803409;29;19923;-76
2021/03/11 04:37:23;;;;;;;20.58;10.52;;;9.00;98.00;;;;;;4804880;29;20034;-76
2021/03/11 04:39:49;;;;;;;19.15;10.70;;;9.00;97.90;;;;;;4803503;29;20047;-75
2021/03/11 04:42:15;;;;;;;22.10;11.38;;;9.00;97.90;;;;;;4804122;29;20033;-75
2021/03/11 04:44:42;;;;;;;23.15;10.80;;;9.00;97.90;;;;;;4805821;29;20031;-77
2021/03/11 04:47:10;;;;;;;19.60;10.05;;;9.00;97.80;;;;;;4804048;29;20116;-76
2021/03/11 04:49:37;;;;;;;18.58;9.63;;;9.00;97.90;;;;;;4804198;29;20510;-75
2021/03/11 04:52:03;;;;;;;20.73;11.15;;;9.10;97.80;;;;;;4804135;29;20038;-75
2021/03/11 04:54:30;;;;;;;18.10;9.98;;;9.10;97.80;;;;;;4803172;29;20411;-76
2021/03/11 04:56:55;;;;;;;18.75;10.30;;;9.10;97.80;;;;;;4805548;29;20114;-76
2021/03/11 04:59:22;;;;;;;16.05;9.68;;;9.10;97.90;;;;;;4804149;29;20732;-77
2021/03/11 05:01:51;;;;;;;19.08;10.02;;;9.10;97.80;;;;;;4804113;29;20039;-76
2021/03/11 05:04:18;;;;;;;17.98;9.70;;;9.10;97.80;;;;;;4811690;29;20051;-75
2021/03/11 05:06:44;;;;;;;18.95;9.98;;;9.10;97.80;;;;;;4822111;29;20039;-77
2021/03/11 05:09:10;;;;;;;19.75;9.38;;;9.10;97.80;;;;;;4821998;29;20037;-76
2021/03/11 05:11:35;;;;;;;17.20;9.32;;;9.10;97.90;;;;;;4807118;29;20415;-77
2021/03/11 05:14:01;;;;;;;17.98;9.30;;;9.20;97.80;;;;;;4822261;29;20119;-76
2021/03/11 05:16:27;;;;;;;18.30;9.35;;;9.20;97.80;;;;;;4805657;29;20080;-76
2021/03/11 05:18:52;;;;;;;18.40;9.40;;;9.20;98.00;;;;;;4820995;29;20077;-76
2021/03/11 05:21:18;;;;;;;15.90;8.60;;;9.20;98.00;;;;;;4805573;29;20038;-76
2021/03/11 05:23:44;;;;;;;16.70;9.13;;;9.10;98.10;;;;;;4807014;29;20090;-76
2021/03/11 05:26:09;;;;;;;19.33;9.07;;;9.10;98.20;;;;;;4821626;29;20031;-76
2021/03/11 05:28:35;;;;;;;16.50;9.05;;;9.10;98.30;;;;;;4805053;29;20439;-78
2021/03/11 05:31:01;;;;;;;18.20;9.02;;;9.20;98.30;;;;;;4821730;29;20063;-75
2021/03/11 05:33:26;;;;;;;13.77;8.32;;;9.20;98.40;;;;;;4821742;29;20097;-74
2021/03/11 05:35:52;;;;;;;17.52;9.10;;;9.20;98.50;;;;;;4806895;29;20022;-76
2021/03/11 05:38:19;;;;;;;17.13;9.25;;;9.20;98.60;;;;;;4805454;29;20035;-76
2021/03/11 05:40:45;;;;;;;16.70;8.52;;;9.20;98.70;;;;;;4805382;29;20038;-75
2021/03/11 05:43:10;;;;;;;13.43;7.57;;;9.20;98.80;;;;;;4804755;29;20125;-77
2021/03/11 05:45:36;;;;;;;17.00;8.18;;;9.20;98.90;;;;;;4821362;29;20046;-76
2021/03/11 05:48:03;;;;;;;18.33;8.90;;;9.20;99.00;;;;;;4806526;29;20023;-76
2021/03/11 05:50:29;;;;;;;19.33;8.93;;;9.20;99.10;;;;;;4821318;29;20485;-74
2021/03/11 05:52:58;;;;;;;15.80;7.93;;;9.20;99.10;;;;;;4805112;29;20062;-75
2021/03/11 05:55:24;;;;;;;21.27;8.77;;;9.20;99.30;;;;;;4821129;29;20046;-76
2021/03/11 05:57:50;;;;;;;16.73;9.48;;;9.20;99.50;;;;;;4821118;29;20351;-77
2021/03/11 06:00:18;;;;;;;15.27;8.27;;;9.20;99.70;;;;;;4820884;29;20026;-76
2021/03/11 06:02:45;;;;;;;15.07;7.85;;;9.10;99.90;;;;;;4822602;29;20446;-76
2021/03/11 06:05:15;;;;;;;16.00;8.38;;;9.10;99.90;;;;;;4804593;29;20071;-76
2021/03/11 06:07:48;;;;;;;22.15;8.70;;;9.10;99.90;;;;;;4805099;29;20031;-79
2021/03/11 06:10:19;;;;;;;15.18;8.55;;;9.10;99.90;;;;;;4821168;29;20049;-76
2021/03/11 06:12:46;;;;;;;17.17;8.35;;;9.00;99.90;;;;;;4821019;29;20077;-75
2021/03/11 06:15:23;;;;;;;13.82;7.50;;;9.10;99.90;;;;;;4820717;29;20026;-76
2021/03/11 06:17:49;;;;;;;18.42;9.45;;;9.00;99.90;;;;;;4822842;29;20083;-77
2021/03/11 06:20:15;;;;;;;14.30;8.30;;;9.00;99.90;;;;;;4822027;29;20098;-76
2021/03/11 06:22:41;;;;;;;15.38;8.57;;;9.00;99.90;;;;;;4820822;29;20191;-77
2021/03/11 06:25:08;;;;;;;14.38;7.68;;;9.00;99.90;;;;;;4820754;29;20076;-77
2021/03/11 06:27:34;;;;;;;14.63;7.70;;;9.00;99.90;;;;;;4804627;29;20281;-77
2021/03/11 06:30:00;;;;;;;13.60;8.02;;;8.90;99.90;;;;;;4822110;29;20050;-76
2021/03/11 06:32:27;;;;;;;14.77;8.07;;;8.90;99.90;;;;;;4804385;29;20042;-78
2021/03/11 06:34:52;;;;;;;17.80;8.30;;;8.90;99.90;;;;;;4820502;29;20077;-76
2021/03/11 06:37:41;;;;;;;14.10;8.23;;;9.00;99.90;;;;;;4816189;29;20081;-75
2021/03/11 06:40:25;;;;;;;19.65;8.70;;;9.00;99.90;;;;;;4802415;29;20554;-76
2021/03/11 06:42:52;;;;;;;15.80;9.25;;;9.00;99.90;;;;;;4786654;29;20069;-77
2021/03/11 06:45:30;;;;;;;20.88;10.52;;;9.00;99.90;;;;;;4802333;29;20088;-75
2021/03/11 06:48:17;;;;;;;;;;;8.90;99.90;;;;;;4804145;29;20106;-76
2021/03/11 06:50:42;;;;;;;17.90;10.13;;;8.90;99.90;;;;;;4802057;29;20274;-76
2021/03/11 06:53:08;;;;;;;17.88;10.15;;;8.90;99.90;;;;;;4802273;29;20031;-76
2021/03/11 06:55:33;;;;;;;18.40;9.55;;;8.80;99.90;;;;;;4787726;29;20047;-77
2021/03/11 06:58:15;;;;;;;15.68;8.90;;;8.90;99.90;;;;;;4802457;29;20031;-76
2021/03/11 07:00:41;;;;;;;15.73;9.20;;;8.90;99.90;;;;;;4802159;29;20027;-76
2021/03/11 07:03:07;;;;;;;14.75;8.82;;;8.90;99.90;;;;;;4802236;29;20096;-75
2021/03/11 07:05:39;;;;;;;17.67;8.68;;;8.90;99.90;;;;;;4803321;29;20047;-77
2021/03/11 07:08:14;;;;;;;18.65;9.07;;;8.90;99.90;;;;;;4802004;29;20046;-75
2021/03/11 07:10:41;;;;;;;18.42;9.85;;;9.00;99.90;;;;;;4802343;29;20063;-75
2021/03/11 07:13:07;;;;;;;18.58;8.70;;;9.00;99.90;;;;;;4801708;29;20417;-77
2021/03/11 07:15:35;;;;;;;16.10;8.20;;;9.10;99.90;;;;;;4786078;29;20070;-77
2021/03/11 07:18:02;;;;;;;15.88;9.35;;;9.00;99.90;;;;;;4803692;29;20046;-77
2021/03/11 07:20:33;;;;;;;14.52;8.75;;;9.00;99.90;;;;;;4802206;29;20595;-77
2021/03/11 07:23:09;;;;;;;17.27;8.65;;;9.00;99.90;;;;;;4801213;29;20046;-78
2021/03/11 07:25:46;;;;;;;14.82;8.75;;;9.00;99.90;;;;;;4785824;29;20031;-78
2021/03/11 07:28:44;;;;;;;17.42;8.30;;;9.10;99.90;;;;;;4802156;29;20126;-76
2021/03/11 07:31:09;;;;;;;19.00;9.35;;;9.10;99.90;;;;;;4752603;29;20054;-78
2021/03/11 07:33:38;;;;;;;19.15;9.25;;;9.10;99.90;;;;;;4800951;29;20126;-77
2021/03/11 07:36:04;;;;;;;;;;;9.10;99.90;;;;;;4803924;29;20035;-79
2021/03/11 07:38:32;;;;;;;17.83;9.02;;;9.20;99.90;;;;;;4785521;29;19913;-78
2021/03/11 07:41:00;;;;;;;23.15;10.07;;;9.20;99.90;;;;;;4786243;29;20039;-78
2021/03/11 07:43:27;;;;;;;19.98;9.88;;;9.20;99.90;;;;;;4788927;29;20064;-79
2021/03/11 07:46:02;;;;;;;15.80;8.82;;;9.30;99.90;;;;;;4806872;29;20077;-78
2021/03/11 07:48:28;;;;;;;13.93;8.05;;;9.30;99.90;;;;;;4823563;29;20066;-79
2021/03/11 07:50:55;;;;;;;16.35;9.10;;;9.40;99.90;;;;;;4808639;29;20034;-78
2021/03/11 07:53:21;;;;;;;17.45;8.63;;;9.40;99.90;;;;;;4822957;29;20645;-78
2021/03/11 07:55:48;;;;;;;10.55;6.80;;;9.40;99.90;;;;;;4823118;29;20054;-79
2021/03/11 07:58:17;;;;;;;12.82;6.65;;;9.40;99.90;;;;;;4823168;29;20041;-77
2021/03/11 08:00:43;;;;;;;12.25;6.20;;;9.50;99.90;;;;;;4822814;29;20335;-79
2021/03/11 08:03:36;;;;;;;13.75;6.45;;;9.60;99.90;;;;;;4807529;29;20054;-78
2021/03/11 08:06:23;;;;;;;12.35;6.15;;;9.60;99.90;;;;;;4805472;29;20473;-78
2021/03/11 08:08:49;;;;;;;10.35;4.93;;;9.70;99.90;;;;;;4823247;29;20042;-79
2021/03/11 08:11:37;;;;;;;9.00;5.53;;;9.80;99.90;;;;;;4806278;29;20161;-79
2021/03/11 08:14:20;;;;;;;9.30;5.47;;;9.90;99.90;;;;;;4822689;29;20073;-79
2021/03/11 08:16:46;;;;;;;9.15;5.00;;;9.90;99.90;;;;;;4806508;29;20557;-76
2021/03/11 08:19:34;;;;;;;10.55;4.80;;;9.90;99.90;;;;;;4822890;29;20061;-79
2021/03/11 08:22:00;;;;;;;11.73;4.90;;;10.00;99.50;;;;;;4822692;29;20054;-77
2021/03/11 08:24:48;;;;;;;10.90;5.50;;;10.10;99.50;;;;;;4822695;29;20030;-78
2021/03/11 08:27:32;;;;;;;8.05;4.43;;;10.10;99.40;;;;;;4822299;29;20041;-78
2021/03/11 08:30:00;;;;;;;9.55;5.18;;;10.20;99.30;;;;;;4808018;29;20033;-79
2021/03/11 08:32:51;;;;;;;8.60;4.43;;;10.20;99.30;;;;;;4822374;29;20396;-77
2021/03/11 08:35:29;;;;;;;6.78;4.25;;;10.20;99.20;;;;;;4806351;29;20046;-79
2021/03/11 08:37:55;;;;;;;11.18;4.85;;;10.30;99.20;;;;;;4822617;29;20065;-77
2021/03/11 08:40:36;;;;;;;8.75;3.92;;;10.30;99.10;;;;;;4822572;29;20041;-79
2021/03/11 08:43:02;;;;;;;8.82;4.18;;;10.30;99.20;;;;;;4822369;29;20081;-78
2021/03/11 08:45:36;;;;;;;9.98;4.90;;;10.40;99.20;;;;;;4822325;29;20148;-77
2021/03/11 08:48:15;;;;;;;7.00;3.88;;;10.40;99.20;;;;;;4824064;29;20358;-79
2021/03/11 08:50:42;;;;;;;8.95;3.95;;;10.40;99.10;;;;;;4822531;29;20374;-76
2021/03/11 08:53:08;;;;;;;7.53;4.10;;;10.40;99.20;;;;;;4821783;29;20473;-79
2021/03/11 08:55:38;;;;;;;6.15;3.72;;;10.40;99.20;;;;;;4806224;29;20046;-78
2021/03/11 08:58:23;;;;;;;7.25;4.57;;;10.50;99.30;;;;;;4805650;29;20099;-77
2021/03/11 09:01:02;;;;;;;10.25;4.15;;;10.50;99.30;;;;;;4805831;29;20039;-75
2021/03/11 09:03:36;;;;;;;8.82;4.60;;;10.60;99.40;;;;;;4805811;29;20125;-78
2021/03/11 09:06:01;;;;;;;7.60;3.60;;;10.60;99.40;;;;;;4807491;29;20099;-78
2021/03/11 09:08:27;;;;;;;10.25;4.07;;;10.70;99.40;;;;;;4821937;29;20043;-79
2021/03/11 09:11:09;;;;;;;5.65;3.63;;;10.60;99.40;;;;;;4821744;29;20049;-78
2021/03/11 09:13:35;;;;;;;8.88;3.80;;;10.60;99.30;;;;;;4805663;29;20046;-79
2021/03/11 09:16:01;;;;;;;5.88;3.60;;;10.60;99.30;;;;;;4821598;29;20056;-77
2021/03/11 09:18:28;;;;;;;7.20;3.22;;;10.60;99.30;;;;;;4821488;29;20107;-78
2021/03/11 09:20:54;;;;;;;6.13;3.42;;;10.60;99.40;;;;;;4823321;29;20113;-77
2021/03/11 09:23:31;;;;;;;7.97;4.03;;;10.60;99.50;;;;;;4821885;29;20134;-77
2021/03/11 09:25:57;;;;;;;6.68;3.60;;;10.70;99.70;;;;;;4821848;29;20045;-77
2021/03/11 09:28:22;;;;;;;9.95;3.40;;;10.60;99.80;;;;;;4821510;29;20034;-77
2021/03/11 09:30:48;;;;;;;7.07;3.83;;;10.60;99.90;;;;;;4821658;29;20165;-79
2021/03/11 09:33:20;;;;;;;6.90;3.67;;;10.60;99.90;;;;;;4805339;29;20125;-78
2021/03/11 09:35:46;;;;;;;6.63;3.50;;;10.70;99.90;;;;;;4823453;29;20031;-78
2021/03/11 09:38:26;;;;;;;6.63;3.00;;;10.80;99.90;;;;;;4821684;29;20359;-78
2021/03/11 09:40:57;;;;;;;6.63;3.28;;;11.00;99.90;;;;;;4806138;29;20038;-80
2021/03/11 09:43:28;;;;;;;8.10;3.42;;;11.30;99.70;;;;;;4821536;29;20110;-76
2021/03/11 09:46:08;;;;;;;4.70;2.90;;;11.80;99.40;;;;;;4805186;29;20042;-79
2021/03/11 09:48:40;;;;;;;6.10;2.95;;;12.50;98.70;;;;;;4821061;29;20046;-77
2021/03/11 09:51:16;;;;;;;6.28;2.50;;;13.40;97.50;;;;;;4822813;29;20049;-78
2021/03/11 09:53:42;;;;;;;5.22;2.15;;;13.80;96.20;;;;;;4821414;29;20048;-77
2021/03/11 09:56:27;;;;;;;3.35;2.25;;;14.60;95.40;;;;;;4821108;29;20072;-77
2021/03/11 09:58:57;;;;;;;3.38;2.38;;;15.30;94.50;;;;;;4804698;29;20428;-77
2021/03/11 10:01:29;;;;;;;2.83;1.67;;;15.90;93.40;;;;;;4821343;29;20041;-79
2021/03/11 10:03:55;;;;;;;6.20;2.60;;;15.70;92.60;;;;;;4820271;29;20128;-76
2021/03/11 10:06:22;;;;;;;2.83;1.75;;;15.50;92.40;;;;;;4821293;29;20414;-76
2021/03/11 10:08:56;;;;;;;3.00;2.10;;;15.10;92.70;;;;;;4822877;29;20042;-76
2021/03/11 10:11:33;;;;;;;2.95;1.92;;;15.00;93.10;;;;;;4804723;29;20038;-76
2021/03/11 10:14:02;;;;;;;4.67;2.10;;;15.20;92.90;;;;;;4804259;29;20057;-75
2021/03/11 10:16:32;;;;;;;4.95;2.30;;;15.30;92.80;;;;;;4820972;29;20161;-77
2021/03/11 10:19:06;;;;;;;3.78;2.10;;;15.20;93.10;;;;;;4821476;29;20046;-76
2021/03/11 10:21:45;;;;;;;3.30;2.45;;;15.00;93.00;;;;;;4804317;29;20414;-76
2021/03/11 10:24:12;;;;;;;4.10;2.58;;;14.90;93.20;;;;;;4804257;29;20034;-76
2021/03/11 10:26:37;;;;;;;5.70;2.50;;;14.70;93.20;;;;;;4822286;29;20041;-76
2021/03/11 10:29:09;;;;;;;6.18;1.88;;;14.60;93.20;;;;;;4804575;29;20030;-76
2021/03/11 10:31:35;;;;;;;2.22;1.40;;;14.50;93.10;;;;;;4820774;29;20061;-77
2021/03/11 10:34:01;;;;;;;3.83;1.80;;;14.40;93.10;;;;;;4820677;29;20038;-77
2021/03/11 10:36:27;;;;;;;6.43;2.38;;;14.20;92.90;;;;;;4820433;29;20046;-78
2021/03/11 10:39:08;;;;;;;2.47;1.20;;;14.10;93.10;;;;;;4822420;29;20026;-77
2021/03/11 10:41:36;;;;;;;5.57;1.40;;;14.10;93.00;;;;;;4821104;29;20529;-77
2021/03/11 10:44:20;;;;;;;2.33;1.45;;;13.90;92.60;;;;;;4820795;29;20053;-78
2021/03/11 10:46:45;;;;;;;3.55;1.58;;;13.90;93.00;;;;;;4820601;29;20110;-78
2021/03/11 10:49:13;;;;;;;3.95;1.10;;;13.80;93.20;;;;;;4820413;29;20103;-78
2021/03/11 10:51:39;;;;;;;;;;;13.80;93.20;;;;;;4820453;29;20066;-77
2021/03/11 10:54:05;;;;;;;2.22;1.20;;;13.70;93.50;;;;;;4821847;29;20040;-77
2021/03/11 10:56:32;;;;;;;4.28;2.10;;;13.70;93.70;;;;;;4820381;29;20054;-78
2021/03/11 10:59:05;;;;;;;2.42;1.08;;;13.60;93.50;;;;;;4820616;29;20047;-78
2021/03/11 11:01:32;;;;;;;3.88;1.42;;;13.60;93.20;;;;;;4820255;29;20039;-78
2021/03/11 11:03:59;;;;;;;5.53;1.25;;;13.60;93.20;;;;;;4820059;29;20501;-77
2021/03/11 11:06:25;;;;;;;4.53;1.40;;;13.50;93.40;;;;;;4820615;29;20145;-77
2021/03/11 11:08:51;;;;;;;3.03;1.40;;;13.50;93.50;;;;;;4821937;29;20027;-78
2021/03/11 11:11:19;;;;;;;4.05;1.40;;;13.40;94.10;;;;;;4804131;29;20420;-78
2021/03/11 11:13:46;;;;;;;4.60;1.35;;;13.50;94.00;;;;;;4820564;29;20102;-78
2021/03/11 11:16:12;;;;;;;2.78;1.00;;;13.50;93.70;;;;;;4820894;29;20050;-78
2021/03/11 11:18:38;;;;;;;4.65;1.17;;;13.70;93.80;;;;;;4824043;29;20480;-77
2021/03/11 11:21:05;;;;;;;3.72;1.00;;;13.70;93.90;;;;;;4825254;29;20355;-76
2021/03/11 11:23:31;;;;;;;5.93;1.55;;;13.70;93.90;;;;;;4823562;29;20102;-78
2021/03/11 11:25:57;;;;;;;2.50;1.52;;;13.70;94.00;;;;;;4806453;29;20038;-78
2021/03/11 11:28:22;;;;;;;6.22;1.40;;;13.60;93.90;;;;;;4823565;29;20042;-77
2021/03/11 11:30:48;;;;;;;4.28;1.23;;;13.60;93.80;;;;;;4822875;29;20039;-78
2021/03/11 11:33:14;;;;;;;11.65;1.73;;;13.70;93.10;;;;;;4823516;29;20438;-78
2021/03/11 11:35:39;;;;;;;5.18;0.93;;;13.80;92.90;;;;;;4824631;29;20149;-78
2021/03/11 11:38:05;;;;;;;4.00;1.45;;;14.10;92.50;;;;;;4823232;29;20513;-79
2021/03/11 11:40:31;;;;;;;3.97;1.20;;;14.40;91.90;;;;;;4806964;29;20066;-80
2021/03/11 11:42:58;;;;;;;4.30;1.15;;;14.40;91.20;;;;;;4823111;29;20057;-79
2021/03/11 11:45:24;;;;;;;2.87;1.00;;;14.50;90.90;;;;;;4807299;29;20027;-79
2021/03/11 11:47:50;;;;;;;5.05;2.35;;;14.60;90.60;;;;;;4824602;29;20030;-75
2021/03/11 11:50:16;;;;;;;8.30;1.55;;;15.00;90.70;;;;;;4823203;29;20049;-80
2021/03/11 11:52:42;;;;;;;10.30;1.73;;;15.30;89.30;;;;;;4823469;29;20128;-81
2021/03/11 11:55:10;;;;;;;4.60;1.35;;;15.40;89.00;;;;;;4823856;29;20118;-84
2021/03/11 11:57:36;;;;;;;5.68;1.60;;;15.60;88.40;;;;;;4823708;29;20103;-80
2021/03/11 12:00:15;;;;;;;9.68;1.83;;;15.60;87.40;;;;;;4825367;29;20103;-76
2021/03/11 12:02:41;;;;;;;11.43;3.20;;;15.70;87.60;;;;;;4806882;29;20058;-78
2021/03/11 12:05:08;;;;;;;12.27;2.85;;;15.60;86.60;;;;;;4822488;29;20059;-76
2021/03/11 12:07:35;;;;;;;13.98;3.15;;;15.40;86.80;;;;;;4806543;29;20101;-78
2021/03/11 12:10:03;;;;;;;8.65;2.08;;;15.20;87.80;;;;;;4822461;29;20343;-77
2021/03/11 12:12:29;;;;;;;;;;;15.10;88.10;;;;;;4822949;29;20038;-78
2021/03/11 12:14:54;;;;;;;14.65;2.88;;;15.20;88.60;;;;;;4824258;29;19928;-77
2021/03/11 12:17:20;;;;;;;14.43;2.08;;;14.90;88.00;;;;;;4822535;29;20039;-77
2021/03/11 12:19:46;;;;;;;8.13;1.60;;;14.80;88.70;;;;;;4822813;29;20695;-78
2021/03/11 12:22:11;;;;;;;10.68;1.98;;;14.90;89.10;;;;;;4822507;29;20039;-76
2021/03/11 12:24:37;;;;;;;11.15;2.10;;;15.00;89.20;;;;;;4822271;29;20026;-77
2021/03/11 12:27:02;;;;;;;5.85;2.00;;;15.00;88.90;;;;;;4823312;29;20091;-76
2021/03/11 12:29:28;;;;;;;13.27;2.50;;;15.00;88.60;;;;;;4806033;29;20576;-77
2021/03/11 12:31:54;;;;;;;8.98;2.40;;;15.20;88.40;;;;;;4822206;29;20047;-77
2021/03/11 12:34:19;;;;;;;14.60;2.40;;;15.20;87.70;;;;;;4822491;29;20045;-78
2021/03/11 12:36:45;;;;;;;9.55;2.10;;;15.30;87.90;;;;;;4822400;29;20046;-78
2021/03/11 12:39:11;;;;;;;11.13;2.15;;;15.40;87.70;;;;;;4822073;29;20430;-74
2021/03/11 12:41:37;;;;;;;7.57;2.17;;;15.40;87.50;;;;;;4808292;29;20477;-78
2021/03/11 12:44:03;;;;;;;11.38;2.17;;;15.50;87.20;;;;;;4822504;29;20042;-78
2021/03/11 12:46:29;;;;;;;12.43;3.50;;;15.50;87.10;;;;;;4822280;29;20125;-78
2021/03/11 12:48:54;;;;;;;14.95;3.10;;;15.50;85.50;;;;;;4821973;29;20102;-76
2021/03/11 12:51:20;;;;;;;14.18;3.28;;;15.30;85.80;;;;;;4822086;29;20378;-78